Terminal Aerodrome Forecast
Issued by NWS

Home | Current Version | Previous Version | Text Only | Print | Product List | Glossary On
Versions: 1 2 3 4 5 6 7 8 9 10 11 12 13 14 15 16 17 18 19 20 21 22 23 24 25 26 27 28 29 30 31
000
FTUS44 KHGX 182208 AAC
TAFIAH
TAF AMD
KIAH 182208Z 1822/1924 12014KT P6SM SCT025 BKN250
     FM190000 14009KT P6SM SCT025
     FM191500 16012KT P6SM BKN025
     FM192100 17013KT P6SM SCT040=

USA.gov is the U.S. government's official web portal to all federal, state and local government web resources and services.